Ora Direzione Vento Velocita' Vento Media Vento Raffica Max. Temperatura Wind Chill Pioggia Pressione
02:41:41.00 °(N)0.0 Kts0.0 Kts0.0 Kts7.8 °C17.96 °C0.0 mm1024.2 Hpa
02:21:33.00 °(N)0.0 Kts0.0 Kts0.0 Kts7.6 °C17.84 °C0.0 mm1024.2 Hpa
02:01:23.00 °(N)0.0 Kts0.0 Kts0.0 Kts7.9 °C18.02 °C0.0 mm1023.1 Hpa
01:41:15.00 °(N)0.0 Kts0.0 Kts0.0 Kts7.9 °C18.02 °C0.0 mm1020.9 Hpa
01:21:03.00 °(N)0.0 Kts0.0 Kts0.0 Kts8.1 °C18.15 °C0.0 mm1022.6 Hpa
01:00:49.00 °(N)0.0 Kts0.0 Kts0.0 Kts8.1 °C18.15 °C0.0 mm1024.2 Hpa
00:40:35.00 °(N)0.0 Kts0.0 Kts0.0 Kts8.1 °C18.15 °C0.0 mm1022.6 Hpa
00:21:39.00 °(N)0.0 Kts0.0 Kts0.0 Kts8.3 °C18.27 °C0.0 mm1022.6 Hpa
00:01:30.00 °(N)0.0 Kts0.0 Kts0.0 Kts8.6 °C18.46 °C0.0 mm1023.1 Hpa
23:41:18.00 °(N)0.0 Kts0.0 Kts0.0 Kts8.6 °C18.46 °C0.0 mm1023.1 Hpa
23:21:12.00 °(N)0.0 Kts0.0 Kts0.0 Kts8.8 °C18.58 °C0.0 mm1024.7 Hpa
23:01:06.00 °(N)0.0 Kts0.0 Kts0.0 Kts9.0 °C18.71 °C0.0 mm1024.7 Hpa
22:40:58.00 °(N)0.0 Kts0.0 Kts0.0 Kts8.8 °C18.58 °C0.0 mm1024.7 Hpa
22:20:56.00 °(N)0.0 Kts0.0 Kts0.0 Kts8.8 °C18.58 °C0.0 mm1023.1 Hpa
22:00:45.00 °(N)0.0 Kts0.0 Kts0.0 Kts9.0 °C18.71 °C0.0 mm1024.2 Hpa
21:40:33.00 °(N)0.0 Kts0.0 Kts0.0 Kts9.3 °C18.89 °C0.0 mm1024.2 Hpa
21:21:41.00 °(N)0.0 Kts0.0 Kts0.0 Kts9.3 °C18.89 °C0.0 mm1024.2 Hpa
21:01:30.00 °(N)0.0 Kts0.0 Kts0.0 Kts10.0 °C19.33 °C0.0 mm1023.6 Hpa
20:41:19.00 °(N)0.0 Kts0.0 Kts0.0 Kts10.3 °C19.52 °C0.0 mm1024.2 Hpa
20:21:13.00 °(N)0.0 Kts0.0 Kts0.0 Kts11.1 °C20.01 °C0.0 mm1023.6 Hpa